createdAt,value
2018-09-25T00:01:34.607Z,88.73
2018-09-25T00:04:08.937Z,89.51
2018-09-25T00:06:43.242Z,89.71
2018-09-25T00:09:17.736Z,88.66
2018-09-25T00:11:52.551Z,89.24
2018-09-25T00:14:27.056Z,90.08
2018-09-25T00:17:01.495Z,89.53
2018-09-25T00:19:35.772Z,90.28
2018-09-25T00:22:10.022Z,89.43
2018-09-25T00:24:44.430Z,90.00
2018-09-25T00:27:18.765Z,89.82
2018-09-25T00:29:53.266Z,89.96
2018-09-25T00:32:27.568Z,90.08
2018-09-25T00:35:01.937Z,90.54
2018-09-25T00:37:36.369Z,90.47
2018-09-25T00:40:10.633Z,91.13
2018-09-25T00:42:45.151Z,90.71
2018-09-25T00:45:19.492Z,90.78
2018-09-25T00:47:53.867Z,92.12
2018-09-25T00:50:28.357Z,91.42
2018-09-25T00:53:02.663Z,91.18
2018-09-25T00:55:37.093Z,90.64
2018-09-25T00:58:11.477Z,90.68
2018-09-25T01:00:45.835Z,90.79
2018-09-25T01:03:20.347Z,91.07
2018-09-25T01:05:54.777Z,91.27
2018-09-25T01:08:29.298Z,92.12
2018-09-25T01:11:03.967Z,91.83
2018-09-25T01:13:38.438Z,92.29
2018-09-25T01:16:12.799Z,91.78
2018-09-25T01:18:47.289Z,91.96
2018-09-25T01:21:21.614Z,91.87
2018-09-25T01:23:55.944Z,92.83
2018-09-25T01:26:30.330Z,91.95
2018-09-25T01:29:04.718Z,92.77
2018-09-25T01:31:39.104Z,92.45
2018-09-25T01:34:13.577Z,93.73
2018-09-25T01:36:48.027Z,92.30
2018-09-25T01:39:22.452Z,93.11
2018-09-25T01:41:56.900Z,92.14
2018-09-25T01:44:31.308Z,92.30
2018-09-25T01:47:05.782Z,92.30
2018-09-25T01:49:40.361Z,93.42
2018-09-25T01:52:14.788Z,93.28
2018-09-25T01:54:49.226Z,93.70
2018-09-25T01:57:23.712Z,94.06
2018-09-25T01:59:58.112Z,93.52
2018-09-25T02:02:32.368Z,94.00
2018-09-25T02:05:06.822Z,93.70
2018-09-25T02:07:41.197Z,93.68
2018-09-25T02:10:15.584Z,93.56
2018-09-25T02:12:49.934Z,93.83
2018-09-25T02:15:24.354Z,94.18
2018-09-25T02:17:58.700Z,93.95
2018-09-25T02:20:33.306Z,93.87
2018-09-25T02:23:07.698Z,93.86
2018-09-25T02:25:42.008Z,94.23
2018-09-25T02:28:16.299Z,94.13
2018-09-25T02:30:50.788Z,94.21
2018-09-25T02:33:25.066Z,93.66
2018-09-25T02:35:59.422Z,93.21
2018-09-25T02:38:33.885Z,93.69
2018-09-25T02:41:08.264Z,93.24
2018-09-25T02:43:42.726Z,93.22
2018-09-25T02:46:17.118Z,93.21
2018-09-25T02:48:51.496Z,93.91
2018-09-25T02:51:26.017Z,93.70
2018-09-25T02:54:00.463Z,94.08
2018-09-25T02:56:34.892Z,94.73
2018-09-25T02:59:09.132Z,93.67
2018-09-25T03:01:43.544Z,94.22
2018-09-25T03:04:18.057Z,94.35
2018-09-25T03:06:52.477Z,93.84
2018-09-25T03:09:26.829Z,94.47
2018-09-25T03:12:01.208Z,94.00
2018-09-25T03:14:35.574Z,94.89
2018-09-25T03:17:09.876Z,94.93
2018-09-25T03:19:44.329Z,95.59
2018-09-25T03:22:18.953Z,95.65
2018-09-25T03:24:53.277Z,95.47
2018-09-25T03:27:27.858Z,95.06
2018-09-25T03:30:02.099Z,95.42
2018-09-25T03:32:36.374Z,95.33
2018-09-25T03:35:10.941Z,96.11
2018-09-25T03:37:45.446Z,96.18
2018-09-25T03:40:19.824Z,96.68
2018-09-25T03:42:54.187Z,95.55
2018-09-25T03:45:28.497Z,96.02
2018-09-25T03:48:02.888Z,95.63
2018-09-25T03:50:37.232Z,96.73
2018-09-25T03:53:11.614Z,96.70
2018-09-25T03:55:45.947Z,97.00
2018-09-25T03:58:20.381Z,96.42
2018-09-25T04:00:54.836Z,97.43
2018-09-25T04:03:29.221Z,97.23
2018-09-25T04:06:03.562Z,95.90
2018-09-25T04:08:37.870Z,95.73
2018-09-25T04:11:12.568Z,96.19
2018-09-25T04:13:46.858Z,96.32
2018-09-25T04:16:21.239Z,97.27
2018-09-25T04:18:55.505Z,97.05
2018-09-25T04:21:29.849Z,96.74
2018-09-25T04:26:51.410Z,96.86
2018-09-25T04:29:25.739Z,97.12
2018-09-25T04:32:00.068Z,96.66
2018-09-25T04:34:34.542Z,96.14
2018-09-25T04:37:08.938Z,96.08
2018-09-25T04:39:43.238Z,96.55
2018-09-25T04:42:17.590Z,97.48
2018-09-25T04:44:52.128Z,97.61
2018-09-25T04:47:26.534Z,97.73
2018-09-25T04:50:00.823Z,97.95
2018-09-25T04:52:35.285Z,96.55
2018-09-25T04:55:09.628Z,96.55
2018-09-25T04:57:44.062Z,97.09
2018-09-25T05:00:18.601Z,96.11
2018-09-25T05:02:53.057Z,95.76
2018-09-25T05:05:27.548Z,96.81
2018-09-25T05:08:01.937Z,96.35
2018-09-25T05:10:36.322Z,95.94
2018-09-25T05:13:18.184Z,96.09
2018-09-25T05:15:52.545Z,95.44
2018-09-25T05:18:27.605Z,95.85
2018-09-25T05:21:02.137Z,95.23
2018-09-25T05:23:36.647Z,95.14
2018-09-25T05:26:10.940Z,95.65
2018-09-25T05:28:45.370Z,95.14
2018-09-25T05:31:19.686Z,94.55
2018-09-25T05:33:54.120Z,94.25
2018-09-25T05:36:28.521Z,94.18
2018-09-25T05:39:02.961Z,93.09
2018-09-25T05:41:37.419Z,92.84
2018-09-25T05:44:11.767Z,92.59
2018-09-25T05:46:46.137Z,91.91
2018-09-25T05:49:20.612Z,89.98
2018-09-25T05:51:55.018Z,89.32
2018-09-25T05:54:29.344Z,85.89
2018-09-25T05:57:03.822Z,81.06
2018-09-25T05:59:38.121Z,77.20
2018-09-25T06:02:12.507Z,74.33
2018-09-25T06:04:46.865Z,72.83
2018-09-25T06:07:21.234Z,69.54
2018-09-25T06:09:55.486Z,69.26
2018-09-25T06:12:29.818Z,66.58
2018-09-25T06:15:04.328Z,66.44
2018-09-25T06:17:38.658Z,66.10
2018-09-25T06:20:12.977Z,62.76
2018-09-25T06:22:47.468Z,64.17
2018-09-25T06:25:21.741Z,67.29
2018-09-25T06:27:56.230Z,67.11
2018-09-25T06:30:30.549Z,64.83
2018-09-25T06:33:05.005Z,63.85
2018-09-25T06:35:39.398Z,62.23
2018-09-25T06:38:13.766Z,60.25
2018-09-25T06:40:48.192Z,60.38
2018-09-25T06:43:22.564Z,60.73
2018-09-25T06:45:56.985Z,63.03
2018-09-25T06:48:31.519Z,60.66
2018-09-25T06:51:05.781Z,60.76
2018-09-25T06:53:40.241Z,58.58
2018-09-25T06:56:14.660Z,58.52
2018-09-25T06:58:48.959Z,58.06
2018-09-25T07:01:23.530Z,58.59
2018-09-25T07:03:57.966Z,59.96
2018-09-25T07:06:32.425Z,63.89
2018-09-25T07:09:06.694Z,62.28
2018-09-25T07:11:41.140Z,62.58
2018-09-25T07:14:15.380Z,59.49
2018-09-25T07:16:49.694Z,61.15
2018-09-25T07:19:24.000Z,60.25
2018-09-25T07:21:58.457Z,58.16
2018-09-25T07:24:32.812Z,58.08
2018-09-25T07:27:07.228Z,61.29
2018-09-25T07:29:41.527Z,62.63
2018-09-25T07:32:15.768Z,64.43
2018-09-25T07:34:50.210Z,65.12
2018-09-25T07:37:24.463Z,66.45
2018-09-25T07:39:58.790Z,65.27
2018-09-25T07:42:33.205Z,66.12
2018-09-25T07:45:07.451Z,66.05
2018-09-25T07:47:41.733Z,66.12
2018-09-25T07:50:16.088Z,63.51
2018-09-25T07:52:50.471Z,60.08
2018-09-25T07:55:24.955Z,59.14
2018-09-25T07:57:59.240Z,57.52
2018-09-25T08:00:34.145Z,57.45
2018-09-25T08:03:08.638Z,55.41
2018-09-25T08:05:42.988Z,57.44
2018-09-25T08:08:17.494Z,59.99
2018-09-25T08:10:51.879Z,61.96
2018-09-25T08:13:26.294Z,58.76
2018-09-25T08:16:00.569Z,60.72
2018-09-25T08:18:35.193Z,61.81
2018-09-25T08:21:09.554Z,63.09
2018-09-25T08:23:43.851Z,61.03
2018-09-25T08:26:18.287Z,63.77
2018-09-25T08:28:52.735Z,63.58
2018-09-25T08:31:26.988Z,62.96
2018-09-25T08:34:01.469Z,63.81
2018-09-25T08:36:35.729Z,63.88
2018-09-25T08:39:14.014Z,66.13
2018-09-25T08:41:48.760Z,65.88
2018-09-25T08:44:23.036Z,60.97
2018-09-25T08:46:57.438Z,58.87
2018-09-25T08:49:31.748Z,60.78
2018-09-25T08:52:06.093Z,58.37
2018-09-25T08:54:40.610Z,57.59
2018-09-25T08:57:15.028Z,56.79
2018-09-25T08:59:49.547Z,56.08
2018-09-25T09:02:23.980Z,59.00
2018-09-25T09:04:58.427Z,58.92
2018-09-25T09:07:32.900Z,57.67
2018-09-25T09:10:07.294Z,58.49
2018-09-25T09:12:41.716Z,60.88
2018-09-25T09:15:16.048Z,61.56
2018-09-25T09:17:50.545Z,59.87
2018-09-25T09:20:24.813Z,57.58
2018-09-25T09:22:59.116Z,57.09
2018-09-25T09:25:33.685Z,56.85
2018-09-25T09:28:09.517Z,54.99
2018-09-25T09:30:43.935Z,53.32
2018-09-25T09:33:18.240Z,53.71
2018-09-25T09:35:52.712Z,49.27
2018-09-25T09:38:27.002Z,53.15
2018-09-25T09:41:01.604Z,55.73
2018-09-25T09:43:36.112Z,55.28
2018-09-25T09:46:10.348Z,55.50
2018-09-25T09:48:44.646Z,55.51
2018-09-25T09:51:18.979Z,55.46
2018-09-25T09:53:53.262Z,49.97
2018-09-25T09:56:27.578Z,46.55
2018-09-25T09:59:01.906Z,48.07
2018-09-25T10:01:36.175Z,50.30
2018-09-25T10:04:10.623Z,52.63
2018-09-25T10:06:45.117Z,53.56
2018-09-25T10:09:19.554Z,52.75
2018-09-25T10:11:53.920Z,51.08
2018-09-25T10:14:28.288Z,48.94
2018-09-25T10:17:02.600Z,50.78
2018-09-25T10:19:37.044Z,47.80
2018-09-25T10:22:11.497Z,47.32
2018-09-25T10:24:45.812Z,46.33
2018-09-25T10:27:20.206Z,47.83
2018-09-25T10:29:54.562Z,48.64
2018-09-25T10:32:29.975Z,49.42
2018-09-25T10:35:05.056Z,45.51
2018-09-25T10:37:39.488Z,45.24
2018-09-25T10:40:13.805Z,47.90
2018-09-25T10:42:48.112Z,48.33
2018-09-25T10:45:22.588Z,50.86
2018-09-25T10:47:56.893Z,52.28
2018-09-25T10:50:31.344Z,51.13
2018-09-25T10:53:05.818Z,51.01
2018-09-25T10:55:40.141Z,49.12
2018-09-25T10:58:14.484Z,47.76
2018-09-25T11:00:48.930Z,44.07
2018-09-25T11:03:23.237Z,46.82
2018-09-25T11:05:57.525Z,47.89
2018-09-25T11:08:31.793Z,50.26
2018-09-25T11:11:06.232Z,50.49
2018-09-25T11:13:40.537Z,49.09
2018-09-25T11:16:14.889Z,42.90
2018-09-25T11:18:49.295Z,41.08
2018-09-25T11:21:23.707Z,41.32
2018-09-25T11:23:58.112Z,44.42
2018-09-25T11:26:32.498Z,45.55
2018-09-25T11:29:06.870Z,45.58
2018-09-25T11:31:41.272Z,48.08
2018-09-25T11:34:15.700Z,42.67
2018-09-25T11:36:51.584Z,38.87
2018-09-25T11:39:27.212Z,36.61
2018-09-25T11:42:01.667Z,42.13
2018-09-25T11:44:36.087Z,42.39
2018-09-25T11:47:10.537Z,43.65
2018-09-25T11:49:44.981Z,39.83
2018-09-25T11:52:19.394Z,39.48
2018-09-25T11:54:53.766Z,41.31
2018-09-25T11:57:28.085Z,40.73
2018-09-25T12:00:02.539Z,42.24
2018-09-25T12:02:38.479Z,42.23
2018-09-25T12:05:13.426Z,43.08
2018-09-25T12:07:47.920Z,43.29
2018-09-25T12:10:22.248Z,37.48
2018-09-25T12:12:56.535Z,32.45
2018-09-25T12:15:30.861Z,35.11
2018-09-25T12:18:05.299Z,34.87
2018-09-25T12:20:39.753Z,34.94
2018-09-25T12:23:14.290Z,35.34
2018-09-25T12:25:48.796Z,32.60
2018-09-25T12:28:23.370Z,34.59
2018-09-25T12:30:57.794Z,32.90
2018-09-25T12:33:32.112Z,34.72
2018-09-25T12:36:07.701Z,36.53
2018-09-25T12:38:42.168Z,36.20
2018-09-25T12:41:16.481Z,39.27
2018-09-25T12:43:50.963Z,35.87
2018-09-25T12:46:25.392Z,34.92
2018-09-25T12:48:59.864Z,35.56
2018-09-25T12:51:34.211Z,32.26
2018-09-25T12:54:08.515Z,34.27
2018-09-25T12:56:42.841Z,33.63
2018-09-25T12:59:17.370Z,34.93
2018-09-25T13:01:51.823Z,34.39
2018-09-25T13:04:26.204Z,33.50
2018-09-25T13:07:00.792Z,34.47
2018-09-25T13:09:36.149Z,35.49
2018-09-25T13:12:10.426Z,34.47
2018-09-25T13:14:44.850Z,32.15
2018-09-25T13:17:19.337Z,30.99
2018-09-25T13:19:53.742Z,35.36
2018-09-25T13:22:28.376Z,37.16
2018-09-25T13:25:03.396Z,37.17
2018-09-25T13:27:37.732Z,40.20
2018-09-25T13:30:12.153Z,42.79
2018-09-25T13:32:46.604Z,42.12
2018-09-25T13:35:20.899Z,41.57
2018-09-25T13:37:55.133Z,40.29
2018-09-25T13:40:29.572Z,37.78
2018-09-25T13:43:04.027Z,37.87
2018-09-25T13:45:38.450Z,35.90
2018-09-25T13:48:12.771Z,37.19
2018-09-25T13:50:47.089Z,34.67
2018-09-25T13:53:21.578Z,34.02
2018-09-25T13:55:56.093Z,35.50
2018-09-25T13:58:30.378Z,33.17
2018-09-25T14:01:04.749Z,34.90
2018-09-25T14:03:39.214Z,35.33
2018-09-25T14:06:13.602Z,31.92
2018-09-25T14:08:47.951Z,33.28
2018-09-25T14:11:22.255Z,32.14
2018-09-25T14:13:56.880Z,32.86
2018-09-25T14:16:31.132Z,32.86
2018-09-25T14:19:05.443Z,34.82
2018-09-25T14:21:40.038Z,32.01
2018-09-25T14:24:14.372Z,29.93
2018-09-25T14:26:48.835Z,32.78
2018-09-25T14:29:23.745Z,33.93
2018-09-25T14:31:58.380Z,34.29
2018-09-25T14:34:32.650Z,33.40
2018-09-25T14:37:08.253Z,34.10
2018-09-25T14:39:42.803Z,33.22
2018-09-25T14:42:17.178Z,35.63
2018-09-25T14:44:51.609Z,34.23
2018-09-25T14:47:25.940Z,33.56
2018-09-25T14:50:00.389Z,34.25
2018-09-25T14:52:34.706Z,33.16
2018-09-25T14:55:09.191Z,35.00
2018-09-25T14:57:43.523Z,32.51
2018-09-25T15:00:18.019Z,32.75
2018-09-25T15:02:52.345Z,33.55
2018-09-25T15:05:26.671Z,33.07
2018-09-25T15:08:00.982Z,33.17
2018-09-25T15:10:35.281Z,34.09
2018-09-25T15:13:09.512Z,35.66
2018-09-25T15:15:43.830Z,35.86
2018-09-25T15:18:18.406Z,36.42
2018-09-25T15:20:52.832Z,36.83
2018-09-25T15:23:27.221Z,36.77
2018-09-25T15:26:02.238Z,35.89
2018-09-25T15:28:37.724Z,36.84
2018-09-25T15:31:12.466Z,36.06
2018-09-25T15:33:46.876Z,35.30
2018-09-25T15:36:21.137Z,35.83
2018-09-25T15:38:55.547Z,37.46
2018-09-25T15:41:30.177Z,39.36
2018-09-25T15:44:04.497Z,38.27
2018-09-25T15:46:38.924Z,39.46
2018-09-25T15:49:13.618Z,38.94
2018-09-25T15:51:48.098Z,38.53
2018-09-25T15:54:23.627Z,42.09
2018-09-25T15:56:57.962Z,40.68
2018-09-25T15:59:32.364Z,41.31
2018-09-25T16:02:06.757Z,41.92
2018-09-25T16:04:41.246Z,41.88
2018-09-25T16:07:15.668Z,42.18
2018-09-25T16:09:49.928Z,42.02
2018-09-25T16:12:24.349Z,43.58
2018-09-25T16:14:58.990Z,44.96
2018-09-25T16:17:36.328Z,43.88
2018-09-25T16:20:10.770Z,45.32
2018-09-25T16:22:45.132Z,47.47
2018-09-25T16:25:19.626Z,46.88
2018-09-25T16:27:54.125Z,47.43
2018-09-25T16:30:28.580Z,48.95
2018-09-25T16:33:02.948Z,48.36
2018-09-25T16:35:38.560Z,48.74
2018-09-25T16:38:12.937Z,49.31
2018-09-25T16:40:47.338Z,49.70
2018-09-25T16:43:21.805Z,50.75
2018-09-25T16:45:56.175Z,53.34
2018-09-25T16:48:30.582Z,51.87
2018-09-25T16:51:05.088Z,54.41
2018-09-25T16:53:39.284Z,54.71
2018-09-25T16:56:13.910Z,56.33
2018-09-25T16:58:48.285Z,59.75
2018-09-25T17:01:22.740Z,58.01
2018-09-25T17:03:57.226Z,60.44
2018-09-25T17:06:31.638Z,60.19
2018-09-25T17:09:05.968Z,61.46
2018-09-25T17:11:40.446Z,63.12
2018-09-25T17:14:14.853Z,62.35
2018-09-25T17:16:49.246Z,61.29
2018-09-25T17:19:23.504Z,63.02
2018-09-25T17:21:57.821Z,63.11
2018-09-25T17:24:32.294Z,62.85
2018-09-25T17:27:06.739Z,64.44
2018-09-25T17:29:41.126Z,64.97
2018-09-25T17:32:15.502Z,65.27
2018-09-25T17:34:49.811Z,65.61
2018-09-25T17:37:24.140Z,65.85
2018-09-25T17:39:58.433Z,65.90
2018-09-25T17:42:32.847Z,64.81
2018-09-25T17:45:07.235Z,66.19
2018-09-25T17:47:41.681Z,65.97
2018-09-25T17:50:16.069Z,67.73
2018-09-25T17:52:50.546Z,68.58
2018-09-25T17:55:24.927Z,69.74
2018-09-25T17:57:59.358Z,68.26
2018-09-25T18:00:33.701Z,69.29
2018-09-25T18:03:08.886Z,72.39
2018-09-25T18:05:43.276Z,68.35
2018-09-25T18:08:17.753Z,69.51
2018-09-25T18:10:52.144Z,70.71
2018-09-25T18:13:26.456Z,71.77
2018-09-25T18:16:00.811Z,71.55
2018-09-25T18:18:35.457Z,70.39
2018-09-25T18:21:09.875Z,70.93
2018-09-25T18:23:44.328Z,70.08
2018-09-25T18:26:18.729Z,69.96
2018-09-25T18:28:53.303Z,72.46
2018-09-25T18:31:27.767Z,73.47
2018-09-25T18:34:02.087Z,72.51
2018-09-25T18:36:36.445Z,72.84
2018-09-25T18:39:12.473Z,73.14
2018-09-25T18:41:46.932Z,72.56
2018-09-25T18:44:21.302Z,75.23
2018-09-25T18:46:55.708Z,73.98
2018-09-25T18:49:30.211Z,76.47
2018-09-25T18:52:04.442Z,75.40
2018-09-25T18:54:39.378Z,75.74
2018-09-25T18:57:13.762Z,75.72
2018-09-25T18:59:48.142Z,75.97
2018-09-25T19:02:22.630Z,78.05
2018-09-25T19:04:57.068Z,77.71
2018-09-25T19:07:31.584Z,78.11
2018-09-25T19:10:05.856Z,78.86
2018-09-25T19:12:40.421Z,78.51
2018-09-25T19:15:14.937Z,78.43
2018-09-25T19:17:49.459Z,78.13
2018-09-25T19:20:23.839Z,78.57
2018-09-25T19:22:58.253Z,78.78
2018-09-25T19:25:32.518Z,79.85
2018-09-25T19:28:06.869Z,79.55
2018-09-25T19:30:41.174Z,79.21
2018-09-25T19:33:15.528Z,79.51
2018-09-25T19:35:50.091Z,79.56
2018-09-25T19:38:24.602Z,78.22
2018-09-25T19:40:58.909Z,79.33
2018-09-25T19:43:33.287Z,79.25
2018-09-25T19:46:07.854Z,79.14
2018-09-25T19:48:42.561Z,79.17
2018-09-25T19:51:16.851Z,79.41
2018-09-25T19:53:51.182Z,80.29
2018-09-25T19:56:25.628Z,81.00
2018-09-25T19:59:03.932Z,80.28
2018-09-25T20:01:38.337Z,81.06
2018-09-25T20:04:12.681Z,81.47
2018-09-25T20:06:47.091Z,82.56
2018-09-25T20:09:21.386Z,81.83
2018-09-25T20:11:55.867Z,81.17
2018-09-25T20:14:30.385Z,81.31
2018-09-25T20:17:04.817Z,81.05
2018-09-25T20:19:39.233Z,81.83
2018-09-25T20:22:13.651Z,82.07
2018-09-25T20:24:47.945Z,82.91
2018-09-25T20:27:22.349Z,82.30
2018-09-25T20:29:56.610Z,83.31
2018-09-25T20:32:30.918Z,84.04
2018-09-25T20:35:05.552Z,82.78
2018-09-25T20:37:40.060Z,82.77
2018-09-25T20:40:15.881Z,83.11
2018-09-25T20:42:50.289Z,84.34
2018-09-25T20:45:24.752Z,83.95
2018-09-25T20:47:59.035Z,83.57
2018-09-25T20:50:33.489Z,84.36
2018-09-25T20:53:07.848Z,84.17
2018-09-25T20:55:42.327Z,83.41
2018-09-25T20:58:16.745Z,84.09
2018-09-25T21:00:50.971Z,83.69
2018-09-25T21:03:25.276Z,83.41
2018-09-25T21:05:59.706Z,83.77
2018-09-25T21:08:34.102Z,85.20
2018-09-25T21:11:08.595Z,84.91
2018-09-25T21:13:42.837Z,85.68
2018-09-25T21:16:17.126Z,85.17
2018-09-25T21:18:51.443Z,84.72
2018-09-25T21:21:26.202Z,85.92
2018-09-25T21:24:00.571Z,86.38
2018-09-25T21:26:34.825Z,85.31
2018-09-25T21:29:09.322Z,85.04
2018-09-25T21:31:43.930Z,85.37
2018-09-25T21:34:18.242Z,85.62
2018-09-25T21:36:52.520Z,86.09
2018-09-25T21:39:27.183Z,86.67
2018-09-25T21:42:01.684Z,86.84
2018-09-25T21:44:35.981Z,87.11
2018-09-25T21:47:10.357Z,87.66
2018-09-25T21:49:44.825Z,86.26
2018-09-25T21:52:19.108Z,86.73
2018-09-25T21:54:53.516Z,86.95
2018-09-25T21:57:28.201Z,88.19
2018-09-25T22:00:02.633Z,88.13
2018-09-25T22:02:37.091Z,87.55
2018-09-25T22:05:11.448Z,87.84
2018-09-25T22:07:45.867Z,87.34
2018-09-25T22:10:20.289Z,88.27
2018-09-25T22:12:54.758Z,88.39
2018-09-25T22:15:29.016Z,88.27
2018-09-25T22:18:03.393Z,88.60
2018-09-25T22:20:37.824Z,87.84
2018-09-25T22:23:12.549Z,88.44
2018-09-25T22:25:47.007Z,87.78
2018-09-25T22:28:21.390Z,87.86
2018-09-25T22:30:55.700Z,88.83
2018-09-25T22:33:29.962Z,88.85
2018-09-25T22:36:04.373Z,88.98
2018-09-25T22:38:38.782Z,88.46
2018-09-25T22:41:13.149Z,89.91
2018-09-25T22:43:47.600Z,89.24
2018-09-25T22:46:22.027Z,89.02
2018-09-25T22:48:56.493Z,89.17
2018-09-25T22:51:31.007Z,90.30
2018-09-25T22:54:05.388Z,89.89
2018-09-25T22:56:39.913Z,89.78
2018-09-25T22:59:14.274Z,89.89
2018-09-25T23:01:48.632Z,89.27
2018-09-25T23:04:23.012Z,90.12
2018-09-25T23:06:57.314Z,89.65
2018-09-25T23:09:31.733Z,90.27
2018-09-25T23:12:06.041Z,89.66
2018-09-25T23:14:40.388Z,89.16
2018-09-25T23:17:14.814Z,89.10
2018-09-25T23:19:49.544Z,89.96
2018-09-25T23:22:23.805Z,90.00
2018-09-25T23:24:58.203Z,90.33
2018-09-25T23:27:32.619Z,91.05
2018-09-25T23:30:11.536Z,91.98
2018-09-25T23:32:45.845Z,90.92
2018-09-25T23:35:20.321Z,91.08
2018-09-25T23:37:54.623Z,90.10
2018-09-25T23:40:30.790Z,90.52
2018-09-25T23:43:05.121Z,91.13
2018-09-25T23:45:41.805Z,90.09
2018-09-25T23:48:14.953Z,91.24
2018-09-25T23:50:48.640Z,91.23
2018-09-25T23:53:22.940Z,92.18
2018-09-25T23:55:57.087Z,91.47
2018-09-25T23:58:47.607Z,91.00
